Time;durP1;ratioP1;P1;durP2;ratioP2;P2;SDS_P1;SDS_P2;PMS_P1;PMS_P2;Temp;Humidity;BMP_temperature;BMP_pressure;BME280_temperature;BME280_humidity;BME280_pressure;Samples;Min_cycle;Max_cycle;Signal;HPM_P1;HPM_P2
2022/11/20 00:01:14;;;;;;;42.27;27.60;;;-11.50;99.90;;;;;;5087727;28;20532;-73
2022/11/20 00:03:40;;;;;;;44.77;27.37;;;-11.50;99.90;;;;;;5094406;28;20443;-77
2022/11/20 00:06:08;;;;;;;43.07;25.93;;;-11.20;99.90;;;;;;5090445;28;20481;-75
2022/11/20 00:08:35;;;;;;;40.90;26.97;;;-11.20;99.90;;;;;;5090128;28;20179;-77
2022/11/20 00:11:09;;;;;;;44.97;26.67;;;-10.50;99.90;;;;;;5094354;28;20510;-76
2022/11/20 00:13:34;;;;;;;39.53;27.93;;;-10.70;99.90;;;;;;5094565;28;20431;-73
2022/11/20 00:16:02;;;;;;;43.63;27.30;;;-11.10;99.90;;;;;;5091111;28;20437;-76
2022/11/20 00:18:29;;;;;;;43.37;26.80;;;-11.70;99.90;;;;;;5092724;28;20594;-73
2022/11/20 00:21:07;;;;;;;44.87;27.70;;;-11.40;99.90;;;;;;5090028;28;20448;-74
2022/11/20 00:23:33;;;;;;;45.53;27.07;;;-12.10;99.90;;;;;;5081504;28;20750;-72
2022/11/20 00:26:07;;;;;;;48.40;28.83;;;-12.10;99.90;;;;;;5085948;28;20420;-70
2022/11/20 00:28:33;;;;;;;45.27;28.93;;;-11.80;99.90;;;;;;5096487;28;20505;-73
2022/11/20 00:31:04;;;;;;;39.17;27.90;;;-11.90;99.90;;;;;;5095959;28;20740;-73
2022/11/20 00:33:31;;;;;;;43.60;27.13;;;-11.80;99.90;;;;;;5095664;28;20520;-74
2022/11/20 00:36:08;;;;;;;41.47;27.97;;;-12.50;99.90;;;;;;5094347;28;20427;-71
2022/11/20 00:38:35;;;;;;;45.00;28.40;;;-11.90;99.90;;;;;;5093182;28;20430;-75
2022/11/20 00:41:04;;;;;;;45.80;26.70;;;-12.30;99.90;;;;;;5092627;28;20462;-69
2022/11/20 00:43:30;;;;;;;47.10;26.60;;;-12.00;99.90;;;;;;5093556;28;20485;-73
2022/11/20 00:46:05;;;;;;;47.40;25.90;;;-11.40;99.90;;;;;;5092037;28;20446;-72
2022/11/20 00:48:31;;;;;;;41.20;24.43;;;-10.90;99.90;;;;;;5094370;28;20235;-71
2022/11/20 00:50:57;;;;;;;41.97;26.80;;;-10.40;99.90;;;;;;5097890;28;20427;-70
2022/11/20 00:53:24;;;;;;;43.33;25.53;;;-10.50;99.90;;;;;;5096836;28;20450;-71
2022/11/20 00:56:00;;;;;;;44.63;28.23;;;-10.90;99.90;;;;;;5097970;28;20430;-75
2022/11/20 00:58:33;;;;;;;41.53;26.43;;;-11.50;99.90;;;;;;5097844;28;20429;-74
2022/11/20 01:01:11;;;;;;;42.47;26.10;;;-11.50;99.90;;;;;;5097147;28;20462;-74
2022/11/20 01:03:39;;;;;;;45.17;27.80;;;-10.90;99.90;;;;;;5088106;28;20501;-70
2022/11/20 01:06:09;;;;;;;43.33;27.60;;;-11.50;99.90;;;;;;5096151;28;20423;-72
2022/11/20 01:08:36;;;;;;;38.17;24.80;;;-10.20;99.90;;;;;;5090176;28;20424;-72
2022/11/20 01:11:07;;;;;;;37.47;25.13;;;-11.40;99.90;;;;;;5087731;28;20424;-71
2022/11/20 01:13:38;;;;;;;42.20;26.20;;;-11.40;99.90;;;;;;5096148;28;20426;-73
2022/11/20 01:16:22;;;;;;;39.10;27.33;;;-11.50;99.90;;;;;;5097809;28;20702;-72
2022/11/20 01:18:50;;;;;;;37.80;24.20;;;-12.00;99.90;;;;;;5089291;28;20427;-74
2022/11/20 01:21:22;;;;;;;40.43;24.40;;;-12.20;99.90;;;;;;5088221;28;20455;-71
2022/11/20 01:23:49;;;;;;;41.67;27.27;;;-12.40;99.90;;;;;;5083802;28;20481;-72
2022/11/20 01:26:19;;;;;;;44.80;26.50;;;-12.30;99.90;;;;;;5089136;28;20415;-75
2022/11/20 01:28:45;;;;;;;40.37;25.67;;;-12.90;99.90;;;;;;5097529;28;20422;-72
2022/11/20 01:31:44;;;;;;;39.40;25.60;;;-12.50;99.90;;;;;;5096771;28;20427;-72
2022/11/20 01:34:14;;;;;;;37.60;24.50;;;-12.40;99.90;;;;;;5095840;28;20237;-73
2022/11/20 01:36:40;;;;;;;37.57;22.80;;;-11.60;99.90;;;;;;5083298;28;20428;-72
2022/11/20 01:39:11;;;;;;;43.67;27.10;;;-12.10;99.90;;;;;;5090483;28;20431;-79
2022/11/20 01:44:45;;;;;;;40.23;26.90;;;-12.30;99.90;;;;;;5099114;28;20776;-77
2022/11/20 01:47:14;;;;;;;39.27;23.63;;;-11.50;99.90;;;;;;5092585;28;20430;-77
2022/11/20 01:49:50;;;;;;;40.90;26.30;;;-11.70;99.90;;;;;;5101274;28;20430;-72
2022/11/20 01:52:19;;;;;;;41.20;25.57;;;-11.90;99.90;;;;;;5096508;28;20453;-80
2022/11/20 01:55:11;;;;;;;41.67;27.20;;;-13.20;99.90;;;;;;5096576;28;20442;-76
2022/11/20 01:57:39;;;;;;;40.53;25.07;;;-12.30;99.90;;;;;;5096233;28;20445;-78
2022/11/20 02:00:12;;;;;;;41.17;25.67;;;-11.80;99.90;;;;;;5094893;28;20432;-74
2022/11/20 02:02:40;;;;;;;45.00;27.13;;;-11.30;99.90;;;;;;5097028;28;20467;-73
2022/11/20 02:05:32;;;;;;;43.90;28.43;;;-11.00;99.90;;;;;;5100455;28;20471;-75
2022/11/20 02:07:59;;;;;;;36.20;23.80;;;-10.90;99.90;;;;;;5073107;28;20439;-75
2022/11/20 02:10:26;;;;;;;46.30;28.23;;;-10.60;99.90;;;;;;5087211;28;20862;-78
2022/11/20 02:15:37;;;;;;;43.70;25.20;;;-11.00;99.90;;;;;;5099788;28;20473;-78
2022/11/20 02:18:05;;;;;;;42.83;27.63;;;-11.50;99.90;;;;;;5094958;28;20514;-79
2022/11/20 02:20:31;;;;;;;42.77;26.60;;;-12.90;99.90;;;;;;5099243;28;20202;-80
2022/11/20 02:23:10;;;;;;;44.33;26.93;;;-13.00;99.90;;;;;;5094152;28;20419;-80
2022/11/20 02:25:37;;;;;;;45.63;26.50;;;-12.80;99.90;;;;;;5086980;28;20419;-78
2022/11/20 02:28:04;;;;;;;48.13;26.20;;;-12.10;99.90;;;;;;5094742;28;20450;-76
2022/11/20 02:30:30;;;;;;;44.77;25.57;;;-11.30;99.90;;;;;;5093442;28;20514;-79
2022/11/20 02:32:57;;;;;;;45.57;28.90;;;-11.60;99.90;;;;;;5097134;28;20549;-78
2022/11/20 02:35:22;;;;;;;43.57;26.83;;;-11.90;99.90;;;;;;5095316;28;20187;-77
2022/11/20 02:37:52;;;;;;;58.90;27.33;;;-11.60;99.90;;;;;;5094932;28;20502;-76
2022/11/20 02:40:18;;;;;;;46.70;28.13;;;-11.40;99.90;;;;;;5087735;28;20601;-76
2022/11/20 02:42:44;;;;;;;43.40;25.57;;;-10.90;99.90;;;;;;5091519;28;20423;-73
2022/11/20 02:45:10;;;;;;;46.20;23.97;;;-10.60;99.90;;;;;;5088863;28;20235;-77
2022/11/20 02:47:36;;;;;;;50.57;27.30;;;-10.70;99.90;;;;;;5084016;28;20211;-78
2022/11/20 02:50:02;;;;;;;42.87;27.77;;;-10.60;99.90;;;;;;5090798;28;20568;-73
2022/11/20 02:52:28;;;;;;;45.90;26.50;;;-10.80;99.90;;;;;;5083748;28;20213;-75
2022/11/20 02:54:54;;;;;;;42.93;25.17;;;-10.60;99.90;;;;;;5095637;28;20505;-76
2022/11/20 02:57:19;;;;;;;45.40;24.40;;;-12.50;99.90;;;;;;5085085;28;20237;-76
2022/11/20 02:59:45;;;;;;;39.23;25.90;;;-14.10;99.90;;;;;;5093241;28;20238;-77
2022/11/20 03:02:11;;;;;;;45.57;25.87;;;-14.10;99.90;;;;;;5083774;28;20211;-73
2022/11/20 03:04:37;;;;;;;43.23;25.73;;;-13.60;99.90;;;;;;5087316;28;20252;-76
2022/11/20 03:07:03;;;;;;;39.67;25.10;;;-13.00;99.90;;;;;;5088640;28;20252;-78
2022/11/20 03:09:29;;;;;;;45.83;23.93;;;-13.60;99.90;;;;;;5094170;28;20181;-77
2022/11/20 03:11:55;;;;;;;41.27;22.27;;;-12.80;99.90;;;;;;5094878;28;20828;-76
2022/11/20 03:14:21;;;;;;;38.70;23.70;;;-12.60;99.90;;;;;;5086438;28;20237;-77
2022/11/20 03:16:46;;;;;;;39.13;21.33;;;-13.90;99.90;;;;;;5094649;28;20183;-79
2022/11/20 03:19:12;;;;;;;38.60;22.80;;;-13.70;99.90;;;;;;5090978;28;20209;-77
2022/11/20 03:21:38;;;;;;;36.97;23.00;;;-12.90;99.90;;;;;;5091763;28;20505;-76
2022/11/20 03:24:04;;;;;;;34.33;20.70;;;-12.60;99.90;;;;;;5094924;28;20427;-77
2022/11/20 03:26:30;;;;;;;42.17;23.00;;;-12.80;99.90;;;;;;5097725;28;20194;-74
2022/11/20 03:28:58;;;;;;;37.00;23.67;;;-12.80;99.90;;;;;;5090370;28;20322;-77
2022/11/20 03:31:27;;;;;;;31.73;20.27;;;-14.30;99.90;;;;;;5093967;28;20644;-76
2022/11/20 03:33:53;;;;;;;36.33;20.63;;;-14.90;99.90;;;;;;5080145;28;20424;-77
2022/11/20 03:36:20;;;;;;;31.13;18.27;;;-14.60;99.90;;;;;;5094178;28;20439;-77
2022/11/20 03:38:47;;;;;;;30.27;18.30;;;-14.80;99.90;;;;;;5094973;28;20600;-75
2022/11/20 03:41:21;;;;;;;37.07;19.33;;;-14.50;99.90;;;;;;5101712;28;20448;-77
2022/11/20 03:43:50;;;;;;;37.50;19.80;;;-15.10;99.90;;;;;;5089886;28;20448;-75
2022/11/20 03:46:16;;;;;;;34.30;18.97;;;-14.20;99.90;;;;;;5094729;28;20475;-77
2022/11/20 03:48:42;;;;;;;36.60;20.93;;;-13.80;99.90;;;;;;5090371;28;20419;-75
2022/11/20 03:51:14;;;;;;;37.87;23.43;;;-14.10;99.90;;;;;;5080104;28;20205;-73
2022/11/20 03:53:41;;;;;;;33.90;20.97;;;-13.70;99.90;;;;;;5094332;28;20301;-78
2022/11/20 03:56:10;;;;;;;35.50;20.63;;;-13.30;99.90;;;;;;5089207;28;20423;-72
2022/11/20 03:58:39;;;;;;;40.93;20.60;;;-13.00;99.90;;;;;;5100524;28;20426;-75
2022/11/20 04:01:15;;;;;;;37.90;21.47;;;-13.90;99.90;;;;;;5086831;28;20454;-78
2022/11/20 04:03:42;;;;;;;33.93;20.33;;;-14.40;99.90;;;;;;5094853;28;20457;-73
2022/11/20 04:06:20;;;;;;;33.40;20.27;;;-13.80;99.90;;;;;;5096769;28;20429;-72
2022/11/20 04:08:46;;;;;;;40.77;24.07;;;-13.90;99.90;;;;;;5101123;28;20422;-79
2022/11/20 04:11:16;;;;;;;46.20;24.10;;;-14.10;99.90;;;;;;5094385;28;20870;-78
2022/11/20 04:13:45;;;;;;;48.70;23.20;;;-14.10;99.90;;;;;;5099651;28;20450;-76
2022/11/20 04:16:11;;;;;;;40.10;20.97;;;-14.00;99.90;;;;;;5100805;28;20418;-77
2022/11/20 04:18:36;;;;;;;44.23;22.50;;;-13.40;99.90;;;;;;5099310;28;20421;-79
2022/11/20 04:21:03;;;;;;;34.97;20.43;;;-13.80;99.90;;;;;;5099322;28;20648;-71
2022/11/20 04:23:29;;;;;;;38.63;23.23;;;-13.60;99.90;;;;;;5098527;28;20269;-77
2022/11/20 04:26:00;;;;;;;39.20;23.20;;;-13.00;99.90;;;;;;5099441;28;20506;-78
2022/11/20 04:28:26;;;;;;;44.80;25.70;;;-12.80;99.90;;;;;;5093166;28;20183;-77
2022/11/20 04:30:52;;;;;;;38.17;22.67;;;-13.40;99.90;;;;;;5085798;28;20439;-75
2022/11/20 04:33:17;;;;;;;36.33;24.77;;;-13.20;99.90;;;;;;5094019;28;20189;-77
2022/11/20 04:35:45;;;;;;;41.37;22.83;;;-12.00;99.90;;;;;;5093784;28;20185;-77
2022/11/20 04:38:11;;;;;;;38.93;22.83;;;-13.80;99.90;;;;;;5089986;28;20516;-75
2022/11/20 04:40:36;;;;;;;46.00;22.50;;;-13.80;99.90;;;;;;5098652;28;20512;-77
2022/11/20 04:43:02;;;;;;;42.03;23.97;;;-14.30;99.90;;;;;;5097193;28;20467;-75
2022/11/20 04:45:28;;;;;;;50.63;24.23;;;-14.80;99.90;;;;;;5096699;28;20285;-71
2022/11/20 04:47:53;;;;;;;45.93;23.00;;;-14.20;99.90;;;;;;5084616;28;20179;-73
2022/11/20 04:50:19;;;;;;;46.90;24.30;;;-13.90;99.90;;;;;;5092348;28;20175;-78
2022/11/20 04:52:45;;;;;;;46.70;26.70;;;-13.80;99.90;;;;;;5089480;28;20199;-78
2022/11/20 04:55:10;;;;;;;50.37;24.80;;;-14.70;99.90;;;;;;5096147;28;20606;-74
2022/11/20 04:57:36;;;;;;;49.33;34.13;;;-14.50;99.90;;;;;;5098317;28;20208;-74
2022/11/20 05:00:03;;;;;;;45.20;26.97;;;-14.60;99.90;;;;;;5092517;28;20210;-74
2022/11/20 05:02:31;;;;;;;39.80;24.30;;;-14.00;99.90;;;;;;5092177;28;20264;-77
2022/11/20 05:04:56;;;;;;;54.97;34.33;;;-14.00;99.90;;;;;;5081882;28;20422;-73
2022/11/20 05:07:22;;;;;;;51.73;32.17;;;-13.60;99.90;;;;;;5093176;28;20484;-76
2022/11/20 05:09:48;;;;;;;53.00;30.13;;;-13.50;99.90;;;;;;5097717;28;20175;-72
2022/11/20 05:12:14;;;;;;;52.00;27.13;;;-14.30;99.90;;;;;;5097078;28;20186;-76
2022/11/20 05:14:39;;;;;;;64.43;28.00;;;-14.10;99.90;;;;;;5092378;28;20186;-76
2022/11/20 05:17:05;;;;;;;52.87;28.40;;;-14.00;99.90;;;;;;5097505;28;20554;-76
2022/11/20 05:19:31;;;;;;;62.07;26.50;;;-14.00;99.90;;;;;;5085602;28;20185;-75
2022/11/20 05:21:57;;;;;;;49.70;23.07;;;-14.50;99.90;;;;;;5093279;28;20866;-75
2022/11/20 05:24:22;;;;;;;55.13;28.03;;;-15.90;99.90;;;;;;5097339;28;20222;-75
2022/11/20 05:26:48;;;;;;;55.00;24.80;;;-14.50;99.90;;;;;;5097475;28;20175;-75
2022/11/20 05:29:14;;;;;;;50.53;28.23;;;-15.20;99.90;;;;;;5089373;28;20208;-78
2022/11/20 05:31:40;;;;;;;50.47;25.80;;;-14.80;99.90;;;;;;5092446;28;20182;-75
2022/11/20 05:34:07;;;;;;;51.00;26.73;;;-15.20;99.90;;;;;;5093024;28;20600;-76
2022/11/20 05:36:34;;;;;;;52.00;26.90;;;-14.80;99.90;;;;;;5085738;28;20440;-71
2022/11/20 05:38:59;;;;;;;49.37;25.97;;;-15.00;99.90;;;;;;5084643;28;20799;-74
2022/11/20 05:41:25;;;;;;;48.00;26.97;;;-14.60;99.90;;;;;;5087791;28;20478;-74
2022/11/20 05:43:51;;;;;;;63.87;36.73;;;-15.00;99.90;;;;;;5088625;28;20258;-73
2022/11/20 05:46:21;;;;;;;67.33;38.40;;;-14.30;99.90;;;;;;5097390;28;20838;-75
2022/11/20 05:48:47;;;;;;;58.43;32.23;;;-13.70;99.90;;;;;;5096025;28;20433;-72
2022/11/20 05:51:15;;;;;;;66.53;32.27;;;-14.40;99.90;;;;;;5093595;28;20428;-78
2022/11/20 05:53:41;;;;;;;50.50;26.23;;;-14.80;99.90;;;;;;5091046;28;20448;-76
2022/11/20 05:56:10;;;;;;;60.83;33.77;;;-15.00;99.90;;;;;;5092065;28;20434;-77
2022/11/20 05:58:36;;;;;;;63.13;38.73;;;-14.70;99.90;;;;;;5095060;28;20174;-74
2022/11/20 06:01:11;;;;;;;64.23;32.57;;;-15.40;99.90;;;;;;5088162;28;20505;-71
2022/11/20 06:03:37;;;;;;;53.90;27.77;;;-15.00;99.90;;;;;;5095126;28;20451;-69
2022/11/20 06:06:05;;;;;;;62.20;31.17;;;-14.60;99.90;;;;;;5096803;28;20427;-75
2022/11/20 06:08:32;;;;;;;71.47;31.63;;;-15.10;99.90;;;;;;5096033;28;20471;-73
2022/11/20 06:10:58;;;;;;;57.83;31.60;;;-14.30;99.90;;;;;;5096921;28;20435;-76
2022/11/20 06:13:24;;;;;;;69.37;39.90;;;-15.20;99.90;;;;;;5095779;28;20415;-73
2022/11/20 06:15:51;;;;;;;64.33;32.60;;;-15.50;99.90;;;;;;5096208;28;20628;-70
2022/11/20 06:18:17;;;;;;;65.47;29.97;;;-15.20;99.90;;;;;;5099127;28;20431;-70
2022/11/20 06:20:43;;;;;;;61.20;33.37;;;-16.00;99.90;;;;;;5085490;28;20455;-74
2022/11/20 06:23:08;;;;;;;119.83;65.17;;;-15.40;99.90;;;;;;5080635;28;20506;-72
2022/11/20 06:25:41;;;;;;;108.10;51.90;;;-15.60;99.90;;;;;;5091204;28;20281;-75
2022/11/20 06:28:07;;;;;;;173.50;71.40;;;-15.60;99.90;;;;;;5084355;28;20175;-70
2022/11/20 06:30:33;;;;;;;330.83;132.33;;;-14.70;99.90;;;;;;5092837;28;20561;-70
2022/11/20 06:32:59;;;;;;;234.07;93.23;;;-15.60;99.90;;;;;;5094668;28;20521;-73
2022/11/20 06:35:24;;;;;;;254.20;102.10;;;-15.50;99.90;;;;;;5086927;28;20185;-76
2022/11/20 06:37:50;;;;;;;127.60;53.73;;;-15.60;99.90;;;;;;5083410;28;20172;-70
2022/11/20 06:40:16;;;;;;;125.17;52.23;;;-15.60;99.90;;;;;;5090899;28;20177;-70
2022/11/20 06:42:41;;;;;;;88.50;49.40;;;-15.50;99.90;;;;;;5088402;28;20481;-70
2022/11/20 06:45:08;;;;;;;75.57;40.20;;;-14.90;99.90;;;;;;5095637;28;20234;-74
2022/11/20 06:47:33;;;;;;;71.03;39.20;;;-14.60;99.90;;;;;;5085733;28;20178;-71
2022/11/20 06:49:59;;;;;;;86.17;50.87;;;-14.90;99.90;;;;;;5095680;28;20935;-74
2022/11/20 06:52:25;;;;;;;82.47;48.13;;;-15.00;99.90;;;;;;5081236;28;20513;-76
2022/11/20 06:54:51;;;;;;;70.90;36.23;;;-14.30;99.90;;;;;;5085354;28;20189;-70
2022/11/20 06:57:16;;;;;;;107.07;59.87;;;-16.60;99.90;;;;;;5094190;28;20172;-70
2022/11/20 06:59:42;;;;;;;109.93;56.50;;;-15.80;99.90;;;;;;5095112;28;20594;-73
2022/11/20 07:02:12;;;;;;;75.17;40.10;;;-17.10;99.90;;;;;;5095972;28;20266;-75
2022/11/20 07:04:38;;;;;;;90.20;45.40;;;-17.80;99.90;;;;;;5094803;28;20180;-70
2022/11/20 07:07:05;;;;;;;68.30;33.60;;;-18.00;99.90;;;;;;5095247;28;20847;-73
2022/11/20 07:09:32;;;;;;;89.27;41.67;;;-17.80;99.90;;;;;;5087682;28;20419;-75
2022/11/20 07:11:58;;;;;;;61.80;30.83;;;-16.80;99.90;;;;;;5093376;28;20776;-76
2022/11/20 07:14:23;;;;;;;78.27;35.83;;;-17.50;99.90;;;;;;5095047;28;20498;-72
2022/11/20 07:16:49;;;;;;;73.50;36.50;;;-16.70;99.90;;;;;;5090733;28;20407;-70
2022/11/20 07:19:15;;;;;;;64.03;32.30;;;-17.10;99.90;;;;;;5086979;28;20185;-69
2022/11/20 07:21:41;;;;;;;66.33;31.93;;;-17.00;99.90;;;;;;5092564;28;20613;-76
2022/11/20 07:24:06;;;;;;;69.13;31.97;;;-16.70;99.90;;;;;;5087482;28;20253;-72
2022/11/20 07:26:32;;;;;;;57.17;31.30;;;-16.80;99.90;;;;;;5088838;28;20181;-77
2022/11/20 07:28:58;;;;;;;66.17;31.33;;;-17.20;99.90;;;;;;5083180;28;20647;-73
2022/11/20 07:31:24;;;;;;;62.40;30.13;;;-13.70;99.90;;;;;;5089340;28;20194;-72
2022/11/20 07:33:49;;;;;;;62.13;28.43;;;-16.10;99.90;;;;;;5088694;28;20504;-73
2022/11/20 07:36:15;;;;;;;54.70;28.03;;;-15.20;99.90;;;;;;5095121;28;20189;-77
2022/11/20 07:38:41;;;;;;;64.63;29.27;;;-15.20;99.90;;;;;;5087565;28;20238;-77
2022/11/20 07:41:07;;;;;;;66.03;30.13;;;-15.10;99.90;;;;;;5094375;28;20260;-76
2022/11/20 07:43:32;;;;;;;53.00;29.10;;;-16.60;99.90;;;;;;5094505;28;20180;-77
2022/11/20 07:45:59;;;;;;;57.27;30.07;;;-17.20;99.90;;;;;;5091453;28;20188;-73
2022/11/20 07:48:25;;;;;;;65.83;29.47;;;-17.00;99.90;;;;;;5086588;28;20181;-71
2022/11/20 07:50:55;;;;;;;58.47;29.80;;;-16.10;99.90;;;;;;5093466;28;20762;-77
2022/11/20 07:53:21;;;;;;;59.93;28.80;;;-15.90;99.90;;;;;;5094493;28;20544;-76
2022/11/20 07:55:47;;;;;;;62.43;30.00;;;-16.80;99.90;;;;;;5094454;28;20860;-71
2022/11/20 07:58:13;;;;;;;59.93;27.73;;;-16.20;99.90;;;;;;5095102;28;20501;-76
2022/11/20 08:00:40;;;;;;;56.67;29.77;;;-16.80;99.90;;;;;;5094934;28;20494;-73
2022/11/20 08:03:07;;;;;;;59.90;29.60;;;-17.00;99.90;;;;;;5094004;28;20459;-73
2022/11/20 08:05:33;;;;;;;62.70;28.00;;;-17.40;99.90;;;;;;5094675;28;20517;-71
2022/11/20 08:07:58;;;;;;;56.50;28.83;;;-16.60;99.90;;;;;;5086755;28;20440;-78
2022/11/20 08:10:25;;;;;;;55.93;27.50;;;-16.90;99.90;;;;;;5087724;28;20419;-78
2022/11/20 08:15:38;;;;;;;57.67;27.67;;;-15.30;99.90;;;;;;5083983;28;20434;-73
2022/11/20 08:18:11;;;;;;;53.77;26.40;;;-17.30;99.90;;;;;;5093318;28;20450;-73
2022/11/20 08:20:38;;;;;;;57.13;25.50;;;-15.80;99.90;;;;;;5094914;28;20852;-72
2022/11/20 08:23:06;;;;;;;54.40;26.97;;;-15.30;99.90;;;;;;5084600;28;20461;-71
2022/11/20 08:25:33;;;;;;;51.67;25.90;;;-15.70;99.90;;;;;;5086972;28;20427;-73
2022/11/20 08:28:00;;;;;;;72.33;43.67;;;-14.60;99.90;;;;;;5092954;28;20190;-72
2022/11/20 08:30:26;;;;;;;66.83;39.00;;;-16.30;99.90;;;;;;5080391;28;20432;-76
2022/11/20 08:32:52;;;;;;;64.17;32.17;;;-15.60;99.90;;;;;;5094229;28;20425;-76
2022/11/20 08:35:18;;;;;;;51.90;28.83;;;-16.40;99.90;;;;;;5094587;28;20479;-73
2022/11/20 08:37:47;;;;;;;54.73;25.70;;;-17.10;99.90;;;;;;5089111;28;20423;-72
2022/11/20 08:40:14;;;;;;;57.50;30.47;;;-16.70;99.90;;;;;;5089522;28;20590;-75
2022/11/20 08:42:47;;;;;;;55.77;30.40;;;-17.70;99.90;;;;;;5076480;28;20482;-73
2022/11/20 08:45:13;;;;;;;61.10;34.27;;;-17.70;99.90;;;;;;5088699;28;20217;-72
2022/11/20 08:47:38;;;;;;;63.33;44.27;;;-16.70;99.90;;;;;;5097995;28;20461;-73
2022/11/20 08:50:05;;;;;;;69.60;43.87;;;-17.40;99.90;;;;;;5098333;28;20189;-76
2022/11/20 08:52:30;;;;;;;59.30;31.43;;;-16.70;99.90;;;;;;5092349;28;20237;-71
2022/11/20 08:54:56;;;;;;;57.93;32.40;;;-16.60;99.90;;;;;;5098137;28;20189;-70
2022/11/20 08:57:22;;;;;;;54.53;30.90;;;-16.30;99.90;;;;;;5085640;28;20293;-77
2022/11/20 08:59:47;;;;;;;53.50;27.50;;;-15.70;99.90;;;;;;5093139;28;20327;-74
2022/11/20 09:02:13;;;;;;;52.77;26.97;;;-14.70;99.90;;;;;;5097877;28;20244;-74
2022/11/20 09:04:39;;;;;;;62.03;36.87;;;-16.40;99.90;;;;;;5096926;28;20182;-70
2022/11/20 09:07:05;;;;;;;54.53;29.17;;;-16.20;99.90;;;;;;5092578;28;20174;-72
2022/11/20 09:09:30;;;;;;;54.17;32.03;;;-16.10;99.90;;;;;;5091980;28;20197;-71
2022/11/20 09:11:56;;;;;;;59.60;34.50;;;-18.40;99.90;;;;;;5090381;28;20233;-70
2022/11/20 09:14:24;;;;;;;68.00;36.43;;;-17.30;99.90;;;;;;5091235;28;20266;-73
2022/11/20 09:16:50;;;;;;;56.70;33.30;;;-16.90;99.90;;;;;;5089713;28;20867;-72
2022/11/20 09:19:16;;;;;;;51.23;23.77;;;-17.70;99.90;;;;;;5095864;28;20190;-72
2022/11/20 09:21:41;;;;;;;54.00;35.47;;;-17.50;99.90;;;;;;5092419;28;20210;-70
2022/11/20 09:24:07;;;;;;;46.73;30.00;;;-18.00;99.90;;;;;;5094222;28;20665;-71
2022/11/20 09:26:33;;;;;;;48.80;32.73;;;-15.80;99.90;;;;;;5094460;28;20205;-74
2022/11/20 09:28:58;;;;;;;51.20;31.13;;;-18.60;99.90;;;;;;5090539;28;20598;-69
2022/11/20 09:31:26;;;;;;;48.30;29.87;;;-17.40;99.90;;;;;;5093619;28;20553;-71
2022/11/20 09:33:52;;;;;;;55.20;32.73;;;-16.40;99.90;;;;;;5093320;28;20178;-70
2022/11/20 09:36:18;;;;;;;39.67;27.13;;;-16.20;99.90;;;;;;5093630;28;20538;-71
2022/11/20 09:38:45;;;;;;;44.63;23.90;;;-18.50;99.90;;;;;;5085611;28;20720;-69
2022/11/20 09:41:28;;;;;;;35.63;21.60;;;-18.20;99.90;;;;;;5090791;28;20198;-68
2022/11/20 09:44:12;;;;;;;33.53;22.43;;;-18.30;99.90;;;;;;5091604;28;20171;-72
2022/11/20 09:47:05;;;;;;;34.00;20.50;;;-16.00;99.90;;;;;;5086876;28;20171;-68
2022/11/20 09:50:14;;;;;;;28.20;18.83;;;-18.80;99.90;;;;;;5090398;28;20267;-71
2022/11/20 09:52:46;;;;;;;28.13;17.23;;;-20.20;99.90;;;;;;5093615;28;20206;-70
2022/11/20 09:55:14;;;;;;;24.23;17.90;;;-17.70;99.90;;;;;;5084786;28;20945;-73
2022/11/20 09:57:44;;;;;;;34.23;22.90;;;-17.80;99.90;;;;;;5094501;28;20179;-71
2022/11/20 10:00:13;;;;;;;39.27;26.07;;;-16.20;99.90;;;;;;5095535;28;20190;-72
2022/11/20 10:03:00;;;;;;;29.80;18.27;;;-16.90;99.90;;;;;;5095830;28;20222;-72
2022/11/20 10:05:46;;;;;;;25.40;15.57;;;-17.00;99.90;;;;;;5086040;28;20186;-72
2022/11/20 10:08:16;;;;;;;20.77;14.43;;;-17.00;99.90;;;;;;5096542;28;20186;-70
2022/11/20 10:10:46;;;;;;;22.13;14.23;;;-18.40;99.90;;;;;;5086582;28;20175;-74
2022/11/20 10:13:49;;;;;;;16.93;13.80;;;-18.40;99.90;;;;;;5095351;28;20177;-73
2022/11/20 10:16:40;;;;;;;19.47;13.77;;;-18.40;99.90;;;;;;5090338;28;20190;-72
2022/11/20 10:19:30;;;;;;;19.60;10.17;;;-19.30;99.90;;;;;;5080159;28;20308;-74
2022/11/20 10:22:27;;;;;;;31.53;14.10;;;-19.70;99.90;;;;;;5091111;28;20191;-73
2022/11/20 10:25:14;;;;;;;15.17;9.47;;;-20.80;99.90;;;;;;5085749;28;20183;-75
2022/11/20 10:27:52;;;;;;;18.10;9.83;;;-16.90;99.90;;;;;;5084887;28;20496;-72
2022/11/20 10:30:21;;;;;;;12.87;9.50;;;-16.30;99.90;;;;;;5091449;28;20180;-72
2022/11/20 10:32:50;;;;;;;12.33;8.77;;;-16.00;99.90;;;;;;5090813;28;20182;-74
2022/11/20 10:35:25;;;;;;;10.43;8.20;;;-18.70;99.90;;;;;;5095395;28;20212;-71
2022/11/20 10:37:59;;;;;;;11.23;7.07;;;-18.00;99.90;;;;;;5089368;28;20261;-77
2022/11/20 10:40:39;;;;;;;8.27;6.40;;;-19.40;99.90;;;;;;5092704;28;20224;-75
2022/11/20 10:43:21;;;;;;;9.73;6.13;;;-20.10;99.90;;;;;;5086125;28;20180;-77
2022/11/20 10:46:08;;;;;;;8.07;6.57;;;-19.90;99.90;;;;;;5092931;28;20178;-78
2022/11/20 10:48:36;;;;;;;8.23;6.00;;;-18.90;99.90;;;;;;5090520;28;20627;-78
2022/11/20 10:51:41;;;;;;;12.33;5.90;;;-19.10;99.90;;;;;;5095495;28;20235;-74
2022/11/20 10:54:23;;;;;;;7.27;4.43;;;-19.10;99.90;;;;;;5095693;28;20186;-77
2022/11/20 10:56:55;;;;;;;6.70;3.97;;;-16.70;99.90;;;;;;5095539;28;20176;-74
2022/11/20 10:59:40;;;;;;;6.70;3.70;;;-15.20;99.90;;;;;;5088407;28;20191;-73
2022/11/20 11:02:19;;;;;;;12.07;4.40;;;-15.20;99.90;;;;;;5091952;28;20207;-74
2022/11/20 11:04:50;;;;;;;19.27;4.50;;;-15.70;99.90;;;;;;5095607;28;20210;-75
2022/11/20 11:07:20;;;;;;;4.43;3.97;;;-18.00;99.90;;;;;;5085877;28;20180;-73
2022/11/20 11:09:54;;;;;;;4.50;3.47;;;-16.30;99.90;;;;;;5087892;28;20185;-70
2022/11/20 11:12:21;;;;;;;9.53;4.40;;;-17.40;99.90;;;;;;5082271;28;20644;-68
2022/11/20 11:14:53;;;;;;;6.27;2.70;;;-16.20;99.90;;;;;;5090697;28;20192;-70
2022/11/20 11:17:27;;;;;;;7.73;4.57;;;-16.70;99.90;;;;;;5089473;28;20185;-71
2022/11/20 11:20:06;;;;;;;6.23;2.63;;;-17.10;99.90;;;;;;5087038;28;20567;-69
2022/11/20 11:22:42;;;;;;;8.53;3.10;;;-15.90;99.90;;;;;;5087669;28;20627;-69
2022/11/20 11:25:18;;;;;;;8.00;3.03;;;-15.70;99.90;;;;;;5084354;28;20593;-69
2022/11/20 11:27:48;;;;;;;6.40;3.60;;;-15.50;99.90;;;;;;5088049;28;20169;-69
2022/11/20 11:30:16;;;;;;;10.43;8.33;;;-13.60;99.90;;;;;;5082450;28;20241;-73
2022/11/20 11:32:42;;;;;;;5.73;2.80;;;-14.40;99.90;;;;;;5092904;28;20184;-71
2022/11/20 11:35:28;;;;;;;6.73;4.63;;;-13.50;99.90;;;;;;5092966;28;20618;-73
2022/11/20 11:38:16;;;;;;;5.70;3.63;;;-15.80;99.90;;;;;;5094282;28;20597;-71
2022/11/20 11:40:43;;;;;;;6.67;3.20;;;-16.00;99.90;;;;;;5076779;28;20178;-76
2022/11/20 11:46:26;;;;;;;7.50;3.07;;;-14.30;99.90;;;;;;5094465;28;20238;-75
2022/11/20 11:49:15;;;;;;;7.57;3.70;;;-14.40;99.90;;;;;;5089653;28;20484;-73
2022/11/20 11:51:53;;;;;;;6.70;2.80;;;-15.50;99.90;;;;;;5092019;28;20193;-74
2022/11/20 11:54:42;;;;;;;5.40;4.33;;;-13.40;99.90;;;;;;5094664;28;20184;-76
2022/11/20 11:57:38;;;;;;;8.77;4.23;;;-15.00;99.90;;;;;;5072646;28;20789;-72
2022/11/20 12:00:15;;;;;;;6.07;4.33;;;-13.60;99.90;;;;;;5086023;28;20616;-72
2022/11/20 12:02:49;;;;;;;10.07;6.87;;;-15.10;99.90;;;;;;5094361;28;20214;-72
2022/11/20 12:05:26;;;;;;;6.67;5.50;;;-14.00;99.90;;;;;;5094527;28;20174;-78
2022/11/20 12:08:02;;;;;;;6.80;4.20;;;-13.70;99.90;;;;;;5085206;28;20175;-74
2022/11/20 12:11:12;;;;;;;57.83;50.57;;;-11.80;99.90;;;;;;5089365;28;21571;-77
2022/11/20 12:13:41;;;;;;;37.17;24.90;;;-14.80;99.90;;;;;;5071154;28;20593;-77
2022/11/20 12:16:12;;;;;;;11.33;4.07;;;-13.50;99.90;;;;;;5081847;28;20639;-79
2022/11/20 12:18:39;;;;;;;11.10;5.47;;;-14.50;99.90;;;;;;5083285;28;20253;-80
2022/11/20 12:21:06;;;;;;;9.87;4.57;;;-14.60;99.90;;;;;;5091298;28;20219;-76
2022/11/20 12:23:32;;;;;;;7.13;4.40;;;-14.20;99.90;;;;;;5098520;28;20186;-76
2022/11/20 12:26:04;;;;;;;9.10;4.10;;;-14.40;99.90;;;;;;5093820;28;20593;-77
2022/11/20 12:28:57;;;;;;;8.33;4.93;;;-14.40;99.90;;;;;;5096483;28;20187;-74
2022/11/20 12:31:51;;;;;;;4.77;3.30;;;-14.60;99.90;;;;;;5085757;28;20194;-75
2022/11/20 12:34:52;;;;;;;14.20;8.37;;;-14.30;99.90;;;;;;5090892;28;20203;-76
2022/11/20 12:37:47;;;;;;;13.10;8.50;;;-16.30;99.90;;;;;;5087617;28;20183;-76
2022/11/20 12:40:49;;;;;;;17.77;8.07;;;-15.30;99.90;;;;;;5025912;28;20202;-76
2022/11/20 12:46:22;;;;;;;9.53;5.13;;;-12.90;99.90;;;;;;5094660;28;20242;-72
2022/11/20 12:49:06;;;;;;;6.73;4.23;;;-14.10;99.90;;;;;;5098014;28;20653;-71
2022/11/20 12:51:40;;;;;;;3.43;3.07;;;-14.10;99.90;;;;;;5091517;28;20284;-71